Time;durP1;ratioP1;P1;durP2;ratioP2;P2;SDS_P1;SDS_P2;PMS_P1;PMS_P2;Temp;Humidity;BMP_temperature;BMP_pressure;BME280_temperature;BME280_humidity;BME280_pressure;Samples;Min_cycle;Max_cycle;Signal;HPM_P1;HPM_P2
2021/06/24 00:01:19;;;;;;;13.88;12.48;;;19.70;99.90;;;;;;6227594;28;20096;-77
2021/06/24 00:04:22;;;;;;;15.57;12.15;;;19.70;99.90;;;;;;6202193;28;20105;-79
2021/06/24 00:07:24;;;;;;;14.43;12.88;;;19.80;99.90;;;;;;6203649;28;20124;-77
2021/06/24 00:10:26;;;;;;;14.60;13.30;;;19.80;99.90;;;;;;6203517;28;20101;-78
2021/06/24 00:13:29;;;;;;;14.10;12.90;;;19.80;99.90;;;;;;6204078;28;20046;-78
2021/06/24 00:16:31;;;;;;;16.33;14.43;;;19.80;99.90;;;;;;6203356;28;20054;-78
2021/06/24 00:19:34;;;;;;;16.17;14.27;;;19.80;99.90;;;;;;6201922;28;20105;-78
2021/06/24 00:22:36;;;;;;;17.17;13.48;;;19.70;99.90;;;;;;6209127;28;20042;-78
2021/06/24 00:25:38;;;;;;;18.90;14.43;;;19.60;99.90;;;;;;6203867;28;20109;-78
2021/06/24 00:28:40;;;;;;;14.68;13.15;;;19.60;99.90;;;;;;6202671;28;20516;-78
2021/06/24 00:31:42;;;;;;;16.05;13.25;;;19.60;99.90;;;;;;6203283;28;20050;-78
2021/06/24 00:34:45;;;;;;;14.73;13.43;;;19.60;99.90;;;;;;6203878;28;20077;-79
2021/06/24 00:37:48;;;;;;;19.73;14.32;;;19.60;99.90;;;;;;6203113;28;20069;-79
2021/06/24 00:40:50;;;;;;;14.30;12.80;;;19.60;99.90;;;;;;6203587;28;20061;-78
2021/06/24 00:43:52;;;;;;;17.67;13.23;;;19.50;99.90;;;;;;6202799;28;20062;-77
2021/06/24 00:46:55;;;;;;;22.33;13.45;;;19.50;99.90;;;;;;6201494;28;20158;-77
2021/06/24 00:49:59;;;;;;;16.30;13.10;;;19.40;99.90;;;;;;6198217;28;20050;-77
2021/06/24 00:53:01;;;;;;;16.92;13.93;;;19.40;99.90;;;;;;6203227;28;20125;-78
2021/06/24 00:56:06;;;;;;;20.48;13.18;;;19.30;99.90;;;;;;6202450;28;20069;-78
2021/06/24 00:59:08;;;;;;;18.63;14.48;;;19.30;99.90;;;;;;6197816;28;21346;-78
2021/06/24 01:02:10;;;;;;;9.35;8.48;;;19.30;99.90;;;;;;6220775;28;20783;-78
2021/06/24 01:05:14;;;;;;;10.05;8.05;;;19.20;99.90;;;;;;6225743;28;20128;-78
2021/06/24 01:08:16;;;;;;;8.68;7.88;;;19.20;99.90;;;;;;6221512;28;20093;-78
2021/06/24 01:11:19;;;;;;;13.60;8.65;;;19.00;99.90;;;;;;6225461;28;20050;-78
2021/06/24 01:14:21;;;;;;;6.35;5.35;;;19.00;99.90;;;;;;6225567;28;20061;-78
2021/06/24 01:17:23;;;;;;;4.68;4.28;;;18.90;99.90;;;;;;6226981;28;20539;-78
2021/06/24 01:20:28;;;;;;;5.32;4.78;;;18.90;99.90;;;;;;6223501;28;20061;-78
2021/06/24 01:23:30;;;;;;;3.97;3.65;;;18.80;99.90;;;;;;6215608;28;20070;-77
2021/06/24 01:26:33;;;;;;;3.63;3.35;;;18.80;99.90;;;;;;6225079;28;20415;-77
2021/06/24 01:29:35;;;;;;;4.25;3.42;;;18.80;99.90;;;;;;6224947;28;20050;-78
2021/06/24 01:32:37;;;;;;;4.53;3.20;;;18.70;99.90;;;;;;6225168;28;20045;-78
2021/06/24 01:35:40;;;;;;;5.07;2.83;;;18.60;99.90;;;;;;6225679;28;20085;-78
2021/06/24 01:38:44;;;;;;;6.60;3.13;;;18.60;99.90;;;;;;6224710;28;20060;-78
2021/06/24 01:41:56;;;;;;;2.88;2.67;;;18.50;99.90;;;;;;6224577;28;20646;-77
2021/06/24 01:44:58;;;;;;;2.70;2.50;;;18.50;99.90;;;;;;6225300;28;20577;-78
2021/06/24 01:48:00;;;;;;;5.00;2.63;;;18.40;99.90;;;;;;6224452;28;20046;-77
2021/06/24 01:51:05;;;;;;;3.67;3.20;;;18.40;99.90;;;;;;6224516;28;20069;-78
2021/06/24 01:54:07;;;;;;;4.60;2.25;;;18.40;99.90;;;;;;6224905;28;20045;-78
2021/06/24 01:57:14;;;;;;;2.33;2.15;;;18.50;99.90;;;;;;6275205;22;20042;-79
2021/06/24 02:00:17;;;;;;;3.22;2.90;;;18.60;99.90;;;;;;6258277;28;20050;-81
2021/06/24 02:03:20;;;;;;;3.70;3.20;;;18.60;99.90;;;;;;6256972;28;20049;-78
2021/06/24 02:06:21;;;;;;;2.35;2.15;;;18.60;99.90;;;;;;6256927;28;20046;-80
2021/06/24 02:09:23;;;;;;;6.05;2.08;;;18.70;99.90;;;;;;6257911;28;20521;-79
2021/06/24 02:12:27;;;;;;;3.10;2.40;;;18.70;99.90;;;;;;6257168;28;20084;-78
2021/06/24 02:15:29;;;;;;;2.38;2.17;;;18.80;99.90;;;;;;6257406;28;20100;-80
2021/06/24 02:18:31;;;;;;;4.80;4.13;;;18.80;99.90;;;;;;6256411;28;20045;-79
2021/06/24 02:21:32;;;;;;;3.20;2.35;;;18.80;99.90;;;;;;6255031;28;20076;-81
2021/06/24 02:24:34;;;;;;;3.42;2.60;;;18.80;99.90;;;;;;6247268;28;20111;-80
2021/06/24 02:27:37;;;;;;;3.35;2.55;;;18.80;99.90;;;;;;6256711;28;20422;-80
2021/06/24 02:30:40;;;;;;;3.88;2.15;;;18.80;99.90;;;;;;6257582;28;20547;-80
2021/06/24 02:33:42;;;;;;;2.85;2.60;;;18.80;99.90;;;;;;6263376;28;20068;-80
2021/06/24 02:36:44;;;;;;;3.20;2.85;;;18.80;99.90;;;;;;6238150;28;20054;-79
2021/06/24 02:39:46;;;;;;;3.80;2.15;;;18.80;99.90;;;;;;6237249;28;20042;-80
2021/06/24 02:42:50;;;;;;;4.65;2.15;;;18.80;99.90;;;;;;6237810;28;20654;-80
2021/06/24 02:45:51;;;;;;;3.10;2.40;;;18.80;99.90;;;;;;6238498;28;20132;-80
2021/06/24 02:48:54;;;;;;;2.17;1.98;;;18.70;99.90;;;;;;6261610;28;20057;-77
2021/06/24 02:51:56;;;;;;;3.65;2.05;;;18.60;99.90;;;;;;6243387;28;20058;-78
2021/06/24 02:54:58;;;;;;;4.13;2.40;;;18.50;99.90;;;;;;6247892;28;20045;-77
2021/06/24 02:58:01;;;;;;;3.70;2.75;;;18.50;99.90;;;;;;6261799;28;20107;-79
2021/06/24 03:01:03;;;;;;;5.32;2.30;;;18.60;99.90;;;;;;6262049;28;20060;-78
2021/06/24 03:04:06;;;;;;;3.63;2.33;;;18.60;99.90;;;;;;6262694;28;20045;-78
2021/06/24 03:07:08;;;;;;;2.38;2.17;;;18.60;99.90;;;;;;6262358;28;20525;-77
2021/06/24 03:10:11;;;;;;;2.40;2.20;;;18.70;99.90;;;;;;6262180;28;20072;-80
2021/06/24 03:13:14;;;;;;;6.95;2.95;;;18.60;99.90;;;;;;6262934;28;20053;-81
2021/06/24 03:16:16;;;;;;;42.70;11.70;;;18.50;99.90;;;;;;6260841;28;20045;-80
2021/06/24 03:19:19;;;;;;;12.60;5.18;;;18.40;99.90;;;;;;6257922;28;20041;-78
2021/06/24 03:22:21;;;;;;;6.75;3.60;;;18.40;99.90;;;;;;6262578;28;20041;-80
2021/06/24 03:25:23;;;;;;;4.07;2.03;;;18.40;99.90;;;;;;6252642;28;20057;-80
2021/06/24 03:28:26;;;;;;;3.03;1.77;;;18.30;99.90;;;;;;6260840;28;20132;-81
2021/06/24 03:31:28;;;;;;;3.20;2.10;;;18.20;99.90;;;;;;6258933;28;20103;-76
2021/06/24 03:34:30;;;;;;;3.50;2.40;;;18.20;99.90;;;;;;6259830;28;20052;-78
2021/06/24 03:37:32;;;;;;;7.18;2.45;;;18.10;99.90;;;;;;6259463;28;20519;-79
2021/06/24 03:40:34;;;;;;;3.95;3.53;;;18.10;99.90;;;;;;6257664;28;20041;-78
2021/06/24 03:43:37;;;;;;;2.90;1.77;;;18.00;99.90;;;;;;6258855;28;20049;-78
2021/06/24 03:46:39;;;;;;;1.83;1.63;;;18.10;99.90;;;;;;6259832;28;20391;-78
2021/06/24 03:49:41;;;;;;;2.45;1.50;;;18.10;99.90;;;;;;6260215;28;20046;-77
2021/06/24 03:52:43;;;;;;;2.20;1.88;;;18.00;99.90;;;;;;6260179;28;20072;-77
2021/06/24 03:55:45;;;;;;;3.08;1.70;;;18.00;99.90;;;;;;6260094;28;20049;-77
2021/06/24 03:58:48;;;;;;;3.47;1.85;;;17.90;99.90;;;;;;6259318;28;20041;-78
2021/06/24 04:01:50;;;;;;;3.55;1.60;;;17.90;99.90;;;;;;6257084;28;20564;-77
2021/06/24 04:04:53;;;;;;;1.98;1.60;;;18.00;99.90;;;;;;6256487;28;20136;-77
2021/06/24 04:07:55;;;;;;;2.63;2.40;;;18.10;99.90;;;;;;6256735;28;20049;-77
2021/06/24 04:10:57;;;;;;;2.05;1.85;;;18.10;99.90;;;;;;6256505;28;20050;-77
2021/06/24 04:14:00;;;;;;;1.65;1.00;;;18.00;99.90;;;;;;6255958;28;20049;-77
2021/06/24 04:17:02;;;;;;;4.18;1.58;;;18.00;99.90;;;;;;6256414;28;20049;-76
2021/06/24 04:20:05;;;;;;;3.35;1.38;;;18.00;99.90;;;;;;6256860;28;20368;-78
2021/06/24 04:23:07;;;;;;;2.85;1.67;;;18.00;99.90;;;;;;6260058;28;20104;-76
2021/06/24 04:26:09;;;;;;;1.60;1.50;;;18.00;99.90;;;;;;6245263;28;20041;-77
2021/06/24 04:29:12;;;;;;;1.90;1.80;;;18.00;99.90;;;;;;6234313;28;20488;-78
2021/06/24 04:32:14;;;;;;;2.10;1.50;;;18.00;99.90;;;;;;6234108;28;20083;-78
2021/06/24 04:35:16;;;;;;;3.50;1.95;;;18.00;99.90;;;;;;6231883;28;20050;-77
2021/06/24 04:38:18;;;;;;;1.60;1.23;;;17.90;99.90;;;;;;6231997;28;20068;-78
2021/06/24 04:41:20;;;;;;;2.60;1.55;;;17.90;99.90;;;;;;6232691;28;20741;-78
2021/06/24 04:44:23;;;;;;;1.50;1.40;;;17.90;99.90;;;;;;6232987;28;20100;-78
2021/06/24 04:47:25;;;;;;;1.63;1.33;;;17.90;99.90;;;;;;6233177;28;20109;-78
2021/06/24 04:50:27;;;;;;;1.23;1.17;;;17.90;99.90;;;;;;6231898;28;20061;-78
2021/06/24 04:53:29;;;;;;;2.60;0.90;;;17.80;99.90;;;;;;6232384;28;20057;-78
2021/06/24 04:56:30;;;;;;;6.38;2.72;;;17.80;99.90;;;;;;6232395;28;20462;-78
2021/06/24 04:59:34;;;;;;;1.27;0.75;;;17.90;99.90;;;;;;6232840;28;20042;-77
2021/06/24 05:02:36;;;;;;;4.53;1.55;;;18.00;99.90;;;;;;6232738;28;20050;-79
2021/06/24 05:05:40;;;;;;;1.30;1.20;;;18.30;99.90;;;;;;6232900;28;20054;-79
2021/06/24 05:08:42;;;;;;;1.10;1.00;;;18.60;99.90;;;;;;6232904;28;20052;-77
2021/06/24 05:11:44;;;;;;;2.25;1.63;;;18.80;99.90;;;;;;6231129;28;20153;-79
2021/06/24 05:14:47;;;;;;;3.00;1.17;;;18.70;99.90;;;;;;6232378;28;20045;-78
2021/06/24 05:17:49;;;;;;;1.42;1.00;;;18.60;99.90;;;;;;6231481;28;20057;-78
2021/06/24 05:20:51;;;;;;;1.77;1.05;;;18.70;99.90;;;;;;6230279;28;20100;-77
2021/06/24 05:23:53;;;;;;;1.77;0.88;;;18.60;99.90;;;;;;6226815;28;20053;-78
2021/06/24 05:26:55;;;;;;;2.58;1.05;;;18.60;99.90;;;;;;6233035;28;20589;-78
2021/06/24 05:29:58;;;;;;;1.48;1.20;;;18.70;99.90;;;;;;6222089;28;20077;-77
2021/06/24 05:33:00;;;;;;;1.60;1.10;;;18.70;99.90;;;;;;6222734;28;20049;-78
2021/06/24 05:36:02;;;;;;;1.00;0.93;;;18.70;99.90;;;;;;6221678;28;20527;-77
2021/06/24 05:39:05;;;;;;;0.98;0.90;;;18.60;99.90;;;;;;6221556;28;20522;-77
2021/06/24 05:42:07;;;;;;;1.65;0.90;;;18.60;99.90;;;;;;6221919;28;20073;-77
2021/06/24 05:45:12;;;;;;;0.85;0.85;;;18.60;99.90;;;;;;6222314;28;20081;-78
2021/06/24 05:48:14;;;;;;;2.92;0.80;;;18.70;99.90;;;;;;6221318;28;20101;-78
2021/06/24 05:51:16;;;;;;;2.92;0.80;;;18.90;99.90;;;;;;6221348;28;20061;-77
2021/06/24 05:54:18;;;;;;;0.93;0.80;;;19.00;99.90;;;;;;6221702;28;20413;-78
2021/06/24 05:57:20;;;;;;;0.80;0.80;;;18.90;99.90;;;;;;6221612;28;20104;-78
2021/06/24 06:00:24;;;;;;;3.90;0.90;;;19.00;99.90;;;;;;6220690;28;20081;-77
2021/06/24 06:03:26;;;;;;;1.40;1.15;;;19.10;99.90;;;;;;6229543;28;20077;-77
2021/06/24 06:06:28;;;;;;;1.33;1.23;;;19.00;99.90;;;;;;6240529;28;20129;-77
2021/06/24 06:09:30;;;;;;;1.10;0.95;;;18.90;99.90;;;;;;6245485;28;20092;-77
2021/06/24 06:12:32;;;;;;;3.50;1.20;;;19.00;99.90;;;;;;6245588;28;20052;-78
2021/06/24 06:15:36;;;;;;;1.45;1.00;;;19.10;99.90;;;;;;6245408;28;20077;-77
2021/06/24 06:18:38;;;;;;;1.13;0.95;;;19.10;99.90;;;;;;6245176;28;20068;-78
2021/06/24 06:21:41;;;;;;;2.00;1.33;;;19.10;99.90;;;;;;6246018;28;20499;-77
2021/06/24 06:24:44;;;;;;;2.13;1.20;;;19.30;99.90;;;;;;6245256;28;20048;-78
2021/06/24 06:27:46;;;;;;;0.98;0.90;;;19.30;99.90;;;;;;6244491;28;20053;-78
2021/06/24 06:30:50;;;;;;;1.38;1.27;;;19.30;99.90;;;;;;6247203;28;20138;-78
2021/06/24 06:33:52;;;;;;;4.65;1.45;;;19.30;99.90;;;;;;6247618;28;20140;-78
2021/06/24 06:36:54;;;;;;;2.28;1.08;;;19.30;99.90;;;;;;6228581;28;20045;-79
2021/06/24 06:39:55;;;;;;;2.25;1.20;;;19.30;99.90;;;;;;6231471;28;20049;-76
2021/06/24 06:42:57;;;;;;;2.47;1.35;;;19.40;99.90;;;;;;6234392;28;20127;-78
2021/06/24 06:46:01;;;;;;;1.15;1.10;;;19.60;99.90;;;;;;6246412;28;20064;-79
2021/06/24 06:49:03;;;;;;;4.35;1.85;;;20.20;99.90;;;;;;6223588;28;20082;-77
2021/06/24 06:52:05;;;;;;;1.90;1.48;;;20.70;98.60;;;;;;6242253;28;20056;-77
2021/06/24 06:55:08;;;;;;;1.50;1.10;;;21.40;97.10;;;;;;6236916;28;20104;-77
2021/06/24 06:58:10;;;;;;;1.00;0.95;;;21.80;95.50;;;;;;6226378;28;20598;-77
2021/06/24 07:01:13;;;;;;;1.27;1.17;;;22.40;94.30;;;;;;6247741;28;20100;-78
2021/06/24 07:04:15;;;;;;;2.75;1.05;;;23.00;92.40;;;;;;6227409;28;20077;-77
2021/06/24 07:07:17;;;;;;;1.27;1.17;;;23.40;90.60;;;;;;6234639;28;20049;-79
2021/06/24 07:10:20;;;;;;;1.73;1.48;;;23.50;89.20;;;;;;6241891;28;20092;-78
2021/06/24 07:13:22;;;;;;;1.67;1.42;;;23.50;89.10;;;;;;6224764;28;20053;-78
2021/06/24 07:16:25;;;;;;;3.05;1.40;;;23.40;88.70;;;;;;6247058;28;20099;-77
2021/06/24 07:19:33;;;;;;;2.92;2.72;;;23.80;87.40;;;;;;6238650;28;20045;-78
2021/06/24 07:22:35;;;;;;;2.58;2.28;;;24.50;84.90;;;;;;6239901;28;20064;-78
2021/06/24 07:25:37;;;;;;;2.58;2.38;;;25.40;81.40;;;;;;6259336;28;20062;-79
2021/06/24 07:28:39;;;;;;;3.97;2.85;;;25.60;77.50;;;;;;6232203;28;20569;-78
2021/06/24 07:31:42;;;;;;;2.70;2.50;;;25.40;77.00;;;;;;6255773;28;20076;-78
2021/06/24 07:34:44;;;;;;;2.88;2.65;;;25.60;76.50;;;;;;6257272;28;20033;-79
2021/06/24 07:37:46;;;;;;;4.68;3.35;;;25.80;76.30;;;;;;6233256;28;20113;-78
2021/06/24 07:40:48;;;;;;;3.88;3.10;;;25.60;75.10;;;;;;6232279;28;20094;-80
2021/06/24 07:43:49;;;;;;;7.70;3.70;;;25.10;76.00;;;;;;6232677;28;20043;-79
2021/06/24 07:46:53;;;;;;;3.35;3.08;;;24.70;77.70;;;;;;6232877;28;20037;-79
2021/06/24 07:49:54;;;;;;;9.18;4.47;;;24.30;79.20;;;;;;6232158;28;20116;-77
2021/06/24 07:52:56;;;;;;;6.30;4.05;;;24.10;79.40;;;;;;6232795;28;20026;-79
2021/06/24 07:55:58;;;;;;;5.03;4.32;;;23.80;80.50;;;;;;6230700;28;20081;-79
2021/06/24 07:59:00;;;;;;;5.45;4.95;;;23.60;81.20;;;;;;6230253;28;20049;-78
2021/06/24 08:02:05;;;;;;;5.80;5.30;;;23.60;82.30;;;;;;6202249;28;20515;-77
2021/06/24 08:05:08;;;;;;;11.45;5.65;;;23.50;82.50;;;;;;6202858;28;20050;-77
2021/06/24 08:08:10;;;;;;;5.85;5.20;;;24.00;82.00;;;;;;6201196;28;20508;-78
2021/06/24 08:11:11;;;;;;;6.13;4.63;;;24.50;80.50;;;;;;6201146;28;20531;-78
2021/06/24 08:14:14;;;;;;;9.40;5.80;;;24.70;79.80;;;;;;6216161;28;20050;-76
2021/06/24 08:17:17;;;;;;;5.40;4.93;;;24.50;79.50;;;;;;6225617;28;20065;-76
2021/06/24 08:20:19;;;;;;;8.13;6.63;;;24.20;80.40;;;;;;6225946;28;20043;-76
2021/06/24 08:23:22;;;;;;;7.18;6.47;;;24.10;81.20;;;;;;6225612;28;20543;-77
2021/06/24 08:26:24;;;;;;;9.00;7.43;;;24.10;80.70;;;;;;6224866;28;20507;-76
2021/06/24 08:29:26;;;;;;;7.28;5.85;;;24.40;79.60;;;;;;6223693;28;20109;-77
2021/06/24 08:32:29;;;;;;;6.95;6.25;;;24.70;79.20;;;;;;6224884;28;20577;-77
2021/06/24 08:35:31;;;;;;;7.55;6.85;;;25.00;76.80;;;;;;6224073;28;20710;-77
2021/06/24 08:38:33;;;;;;;11.85;7.97;;;25.00;77.00;;;;;;6224458;28;20053;-78
2021/06/24 08:41:36;;;;;;;7.72;6.90;;;25.50;76.60;;;;;;6225220;28;20070;-78
2021/06/24 08:44:39;;;;;;;10.05;6.95;;;25.90;73.30;;;;;;6224440;28;20046;-78
2021/06/24 08:47:46;;;;;;;7.95;7.20;;;25.90;73.10;;;;;;6226053;28;20192;-77
2021/06/24 08:50:49;;;;;;;8.48;7.50;;;25.80;72.70;;;;;;6223657;28;20610;-77
2021/06/24 08:53:51;;;;;;;7.50;6.80;;;26.30;72.10;;;;;;6224988;28;20054;-77
2021/06/24 08:56:53;;;;;;;7.97;7.18;;;27.60;67.20;;;;;;6223869;28;20101;-76
2021/06/24 08:59:57;;;;;;;9.40;7.45;;;28.00;65.30;;;;;;6223256;28;20189;-78
2021/06/24 09:03:15;;;;;;;7.93;7.18;;;28.00;64.20;;;;;;6224641;28;20439;-78
2021/06/24 09:06:18;;;;;;;8.20;7.40;;;28.60;64.10;;;;;;6225154;28;20048;-77
2021/06/24 09:09:27;;;;;;;9.15;8.25;;;29.50;60.40;;;;;;6227876;28;20093;-77
2021/06/24 09:12:29;;;;;;;8.77;7.88;;;29.40;60.70;;;;;;6224388;28;20498;-78
2021/06/24 09:15:36;;;;;;;8.70;7.90;;;29.80;59.00;;;;;;6225254;28;20096;-78
2021/06/24 09:18:39;;;;;;;8.82;7.07;;;30.30;57.80;;;;;;6225600;28;20042;-78
2021/06/24 09:21:42;;;;;;;8.75;7.90;;;29.80;57.50;;;;;;6225231;28;20417;-77
2021/06/24 09:24:46;;;;;;;8.18;7.30;;;28.90;59.40;;;;;;6223986;28;20628;-78
2021/06/24 09:27:48;;;;;;;8.98;6.88;;;28.00;61.10;;;;;;6224048;28;20046;-78
2021/06/24 09:30:50;;;;;;;10.35;6.70;;;27.20;62.50;;;;;;6223421;28;20507;-77
2021/06/24 09:33:55;;;;;;;7.25;6.55;;;26.60;64.80;;;;;;6223496;28;20093;-78
2021/06/24 09:37:01;;;;;;;9.25;6.25;;;26.30;65.50;;;;;;6233129;28;20046;-77
2021/06/24 09:40:12;;;;;;;11.38;6.80;;;26.40;66.30;;;;;;6237127;28;20045;-77
2021/06/24 09:43:29;;;;;;;7.15;6.53;;;26.40;65.90;;;;;;6237365;28;20049;-77
2021/06/24 09:46:31;;;;;;;7.35;6.60;;;26.60;66.10;;;;;;6234367;28;20072;-78
2021/06/24 09:49:35;;;;;;;7.68;6.43;;;28.00;62.80;;;;;;6234676;28;20081;-77
2021/06/24 09:52:38;;;;;;;8.20;7.40;;;28.90;61.20;;;;;;6230242;28;20085;-77
2021/06/24 09:55:41;;;;;;;6.55;5.97;;;29.00;59.20;;;;;;6222208;28;20045;-77
2021/06/24 09:58:48;;;;;;;6.03;5.43;;;29.00;59.90;;;;;;6221838;28;20041;-76
2021/06/24 10:01:52;;;;;;;6.73;5.43;;;29.30;58.50;;;;;;6222551;28;20093;-77
2021/06/24 10:04:56;;;;;;;5.47;4.97;;;29.90;56.30;;;;;;6222488;28;20103;-77
2021/06/24 10:07:58;;;;;;;8.45;6.03;;;29.70;55.40;;;;;;6222008;28;20112;-76
2021/06/24 10:11:00;;;;;;;8.52;6.00;;;29.20;55.80;;;;;;6221697;28;20577;-76
2021/06/24 10:14:02;;;;;;;9.43;5.63;;;28.70;57.50;;;;;;6222137;28;20200;-76
2021/06/24 10:17:05;;;;;;;7.53;5.63;;;28.70;57.90;;;;;;6222704;28;20054;-77
2021/06/24 10:20:10;;;;;;;10.00;6.95;;;28.70;58.10;;;;;;6221713;28;20077;-75
2021/06/24 10:23:18;;;;;;;6.82;5.93;;;28.40;58.40;;;;;;6221985;28;20492;-76
2021/06/24 10:26:22;;;;;;;7.68;7.03;;;27.90;59.80;;;;;;6222096;28;20081;-76
2021/06/24 10:29:24;;;;;;;6.28;5.78;;;27.60;61.30;;;;;;6222292;28;20046;-78
2021/06/24 10:32:35;;;;;;;7.05;6.35;;;27.20;61.10;;;;;;6221963;28;20077;-76
2021/06/24 10:35:40;;;;;;;6.50;5.70;;;26.90;62.00;;;;;;6221847;28;20050;-77
2021/06/24 10:38:44;;;;;;;7.25;6.38;;;26.70;62.60;;;;;;6221468;28;20096;-78
2021/06/24 10:42:06;;;;;;;6.22;5.63;;;26.60;63.00;;;;;;6221706;28;20053;-77
2021/06/24 10:45:17;;;;;;;7.50;6.20;;;26.60;62.20;;;;;;6221771;28;20050;-77
2021/06/24 10:48:27;;;;;;;7.25;6.55;;;26.50;63.20;;;;;;6221595;28;20042;-77
2021/06/24 10:51:35;;;;;;;8.48;6.18;;;26.30;64.00;;;;;;6221140;28;20136;-77
2021/06/24 10:54:42;;;;;;;5.07;4.63;;;26.30;64.50;;;;;;6226039;28;20042;-77
2021/06/24 10:57:44;;;;;;;7.68;5.40;;;26.30;63.60;;;;;;6226532;28;20408;-77
2021/06/24 11:00:46;;;;;;;4.63;4.22;;;27.00;62.50;;;;;;6226297;28;20077;-77
2021/06/24 11:03:49;;;;;;;5.90;5.40;;;27.40;61.30;;;;;;6245089;28;20126;-78
2021/06/24 11:06:54;;;;;;;8.90;6.25;;;27.50;61.30;;;;;;6245229;28;20486;-76
2021/06/24 11:10:15;;;;;;;6.05;5.45;;;27.60;61.10;;;;;;6227845;28;20085;-76
2021/06/24 11:13:45;;;;;;;5.75;4.68;;;28.00;59.80;;;;;;6250826;28;20415;-78
2021/06/24 11:16:47;;;;;;;5.35;4.90;;;27.90;58.40;;;;;;6250529;28;20128;-76
2021/06/24 11:20:11;;;;;;;5.50;4.80;;;27.40;60.20;;;;;;6250128;28;20056;-77
2021/06/24 11:23:48;;;;;;;4.43;4.03;;;27.10;60.30;;;;;;6250514;28;20120;-77
2021/06/24 11:26:52;;;;;;;4.63;4.22;;;26.90;60.80;;;;;;6236409;28;20043;-78
2021/06/24 11:29:54;;;;;;;3.75;3.35;;;26.90;60.70;;;;;;6249739;28;20113;-77
2021/06/24 11:33:06;;;;;;;3.88;3.58;;;27.40;60.00;;;;;;6250485;28;20049;-77
2021/06/24 11:36:14;;;;;;;3.95;3.58;;;27.40;57.90;;;;;;6250091;28;20050;-77
2021/06/24 11:39:24;;;;;;;5.30;3.75;;;27.10;58.30;;;;;;6249745;28;20052;-77
2021/06/24 11:42:29;;;;;;;4.15;3.10;;;26.70;60.60;;;;;;6249986;28;20046;-77
2021/06/24 11:45:31;;;;;;;3.63;3.33;;;26.50;61.10;;;;;;6250655;28;20060;-77
2021/06/24 11:48:33;;;;;;;3.80;3.10;;;26.30;60.60;;;;;;6249775;28;20581;-80
2021/06/24 12:03:03;;;;;;;4.38;4.00;;;25.90;61.30;;;;;;6249325;28;20599;-77
2021/06/24 12:05:17;;;;;;;22.25;8.05;;;25.60;64.30;;;;;;6236298;28;20050;-76
2021/06/24 12:08:24;;;;;;;20.50;5.60;;;24.50;78.30;;;;;;6248721;28;20519;-76
2021/06/24 12:11:36;;;;;;;6.22;3.05;;;22.60;86.40;;;;;;6248431;28;20211;-76
2021/06/24 12:14:42;;;;;;;18.13;3.20;;;20.80;91.80;;;;;;6248510;28;20056;-76
2021/06/24 12:17:44;;;;;;;19.38;3.95;;;19.20;95.90;;;;;;6249794;28;20134;-76
2021/06/24 12:20:46;;;;;;;5.38;4.55;;;18.20;99.90;;;;;;6248849;28;20112;-76
2021/06/24 12:23:50;;;;;;;12.70;4.93;;;17.60;99.90;;;;;;6248532;28;20077;-75
2021/06/24 12:26:53;;;;;;;28.67;6.03;;;17.60;99.90;;;;;;6248299;28;20053;-76
2021/06/24 12:29:58;;;;;;;14.40;6.22;;;17.70;99.90;;;;;;6247541;28;20515;-76
2021/06/24 12:33:02;;;;;;;9.80;7.30;;;17.70;99.90;;;;;;6249072;28;20045;-76
2021/06/24 12:36:05;;;;;;;10.38;9.15;;;17.70;99.90;;;;;;6248491;28;20053;-77
2021/06/24 12:39:12;;;;;;;10.45;7.10;;;18.00;99.90;;;;;;6248647;28;20072;-77
2021/06/24 12:42:16;;;;;;;12.38;9.52;;;18.30;99.90;;;;;;6250095;28;20065;-77
2021/06/24 12:45:20;;;;;;;11.00;6.90;;;18.60;99.90;;;;;;6248928;28;20050;-76
2021/06/24 12:48:26;;;;;;;9.32;6.18;;;19.00;99.90;;;;;;6247846;28;20045;-75
2021/06/24 12:51:28;;;;;;;5.50;5.00;;;19.30;99.90;;;;;;6247755;28;20045;-77
2021/06/24 12:54:38;;;;;;;5.15;3.83;;;19.40;99.90;;;;;;6248187;28;20115;-76
2021/06/24 12:57:41;;;;;;;5.35;3.13;;;19.40;99.90;;;;;;6248175;28;20049;-77
2021/06/24 13:00:53;;;;;;;5.32;3.90;;;19.20;99.90;;;;;;6247710;28;20122;-76
2021/06/24 13:03:57;;;;;;;4.75;4.22;;;19.10;99.90;;;;;;6247695;28;20060;-76
2021/06/24 13:07:03;;;;;;;5.28;4.82;;;18.90;99.90;;;;;;6247577;28;20426;-76
2021/06/24 13:10:14;;;;;;;8.23;5.45;;;18.90;99.90;;;;;;6247394;28;20052;-77
2021/06/24 13:13:31;;;;;;;7.45;5.20;;;18.90;99.90;;;;;;6240624;28;20081;-76
2021/06/24 13:16:36;;;;;;;4.10;3.55;;;18.90;99.90;;;;;;6222029;28;20057;-76
2021/06/24 13:19:40;;;;;;;6.63;3.92;;;19.00;99.90;;;;;;6222925;28;20140;-76
2021/06/24 13:22:42;;;;;;;4.90;3.97;;;19.00;99.90;;;;;;6222588;28;20045;-76
2021/06/24 13:25:43;;;;;;;5.50;5.00;;;19.00;99.90;;;;;;6223319;28;20104;-77
2021/06/24 13:28:57;;;;;;;8.68;5.97;;;19.00;99.90;;;;;;6222177;28;20092;-76
2021/06/24 13:31:59;;;;;;;9.13;6.10;;;19.20;99.90;;;;;;6222554;28;20156;-76
2021/06/24 13:35:12;;;;;;;9.25;7.90;;;19.50;99.90;;;;;;6222257;28;20151;-76
2021/06/24 13:38:14;;;;;;;5.00;4.60;;;19.80;99.90;;;;;;6222568;28;20042;-76
2021/06/24 13:41:15;;;;;;;5.55;4.35;;;20.00;99.90;;;;;;6222736;28;20045;-76
2021/06/24 13:44:21;;;;;;;6.45;5.75;;;20.10;99.90;;;;;;6222699;28;20135;-75
2021/06/24 13:47:23;;;;;;;5.13;4.57;;;20.40;99.90;;;;;;6222571;28;20068;-76
2021/06/24 13:50:24;;;;;;;7.47;5.15;;;20.60;99.90;;;;;;6222183;28;20081;-76
2021/06/24 13:53:26;;;;;;;7.85;6.95;;;20.90;99.90;;;;;;6222700;28;20057;-76
2021/06/24 13:56:28;;;;;;;9.27;7.55;;;21.00;99.90;;;;;;6239693;28;20041;-75
2021/06/24 13:59:31;;;;;;;8.52;7.72;;;21.10;99.90;;;;;;6245464;28;20064;-75
2021/06/24 14:02:33;;;;;;;14.38;9.77;;;21.20;99.90;;;;;;6245177;28;20135;-75
2021/06/24 14:05:36;;;;;;;16.00;10.68;;;21.40;99.90;;;;;;6246244;28;20053;-75
2021/06/24 14:08:38;;;;;;;11.05;10.00;;;21.60;99.90;;;;;;6244977;28;20138;-76
2021/06/24 14:11:44;;;;;;;9.05;8.15;;;21.80;99.90;;;;;;6245185;28;20574;-75
2021/06/24 14:14:47;;;;;;;8.73;7.93;;;21.90;99.90;;;;;;6245317;28;20130;-75
2021/06/24 14:17:49;;;;;;;6.97;6.38;;;22.30;99.90;;;;;;6245299;28;20131;-76
2021/06/24 14:20:51;;;;;;;7.53;6.93;;;22.90;99.90;;;;;;6245967;28;20543;-77
2021/06/24 14:23:55;;;;;;;8.60;7.13;;;23.10;99.90;;;;;;6245300;28;20131;-77
2021/06/24 14:26:57;;;;;;;8.18;7.40;;;23.30;99.90;;;;;;6247651;28;20045;-76
2021/06/24 14:30:00;;;;;;;7.28;5.28;;;23.50;99.90;;;;;;6249741;28;20092;-76
2021/06/24 14:33:02;;;;;;;7.15;6.45;;;23.60;99.90;;;;;;6250472;28;20045;-77
2021/06/24 14:36:07;;;;;;;6.32;5.72;;;23.60;99.90;;;;;;6250018;28;20188;-76
2021/06/24 14:39:09;;;;;;;4.90;4.50;;;23.80;99.90;;;;;;6249589;28;20057;-77
2021/06/24 14:42:11;;;;;;;5.97;5.38;;;24.00;99.90;;;;;;6249907;28;20045;-77
2021/06/24 14:45:15;;;;;;;4.45;4.03;;;24.10;99.90;;;;;;6249905;28;20507;-77
2021/06/24 14:48:17;;;;;;;4.43;4.03;;;24.20;99.90;;;;;;6249840;28;20073;-77
2021/06/24 14:51:20;;;;;;;2.60;2.40;;;24.30;99.90;;;;;;6249558;28;20077;-77
2021/06/24 14:54:21;;;;;;;5.80;3.25;;;24.70;99.90;;;;;;6249556;28;20047;-77
2021/06/24 14:57:23;;;;;;;2.35;2.15;;;25.10;99.70;;;;;;6247953;28;20205;-77
2021/06/24 15:00:29;;;;;;;4.88;1.98;;;25.40;99.30;;;;;;6249198;28;20127;-76
2021/06/24 15:03:31;;;;;;;2.60;2.00;;;25.50;98.10;;;;;;6249484;28;20146;-77
2021/06/24 15:06:33;;;;;;;2.55;2.20;;;25.40;96.90;;;;;;6249336;28;20068;-77
2021/06/24 15:09:37;;;;;;;2.35;1.60;;;25.40;96.80;;;;;;6249421;28;20143;-77
2021/06/24 15:12:39;;;;;;;1.50;1.40;;;25.40;95.20;;;;;;6249120;28;20123;-76
2021/06/24 15:15:42;;;;;;;1.35;1.25;;;25.40;95.50;;;;;;6249369;28;20119;-77
2021/06/24 15:18:44;;;;;;;2.03;1.30;;;25.60;94.00;;;;;;6248754;28;20048;-76
2021/06/24 15:21:46;;;;;;;1.60;1.48;;;25.60;93.70;;;;;;6249191;28;20053;-77
2021/06/24 15:24:48;;;;;;;1.10;1.00;;;25.60;92.70;;;;;;6249700;28;20053;-76
2021/06/24 15:27:50;;;;;;;1.48;0.93;;;25.80;91.50;;;;;;6249165;28;20128;-77
2021/06/24 15:30:54;;;;;;;2.25;1.00;;;25.80;86.70;;;;;;6249093;28;20111;-77
2021/06/24 15:33:56;;;;;;;1.33;1.10;;;25.70;85.30;;;;;;6248563;28;20112;-76
2021/06/24 15:36:57;;;;;;;1.33;1.15;;;25.70;84.60;;;;;;6249263;28;20140;-77
2021/06/24 15:40:00;;;;;;;1.70;0.80;;;25.70;83.40;;;;;;6247795;28;20119;-77
2021/06/24 15:43:02;;;;;;;0.45;0.45;;;25.70;81.80;;;;;;6248596;28;20392;-76
2021/06/24 15:46:05;;;;;;;0.70;0.70;;;25.70;84.20;;;;;;6248405;28;20461;-77
2021/06/24 15:49:07;;;;;;;1.02;0.82;;;25.80;80.00;;;;;;6248453;28;20176;-76
2021/06/24 15:52:11;;;;;;;1.13;0.80;;;26.00;81.10;;;;;;6248345;28;20136;-76
2021/06/24 15:55:15;;;;;;;0.40;0.38;;;26.30;77.30;;;;;;6247749;28;20084;-76
2021/06/24 15:58:18;;;;;;;1.10;0.40;;;26.30;76.90;;;;;;6245983;28;20568;-77
2021/06/24 16:01:22;;;;;;;1.48;0.73;;;26.30;73.80;;;;;;6247765;28;20483;-77
2021/06/24 16:04:23;;;;;;;1.10;0.68;;;26.40;74.70;;;;;;6248166;28;20076;-76